Terminal Aerodrome Forecast
Issued by NWS

Home | Current Version | Previous Version | Text Only | Print | Product List | Glossary On
Versions: 1 2 3 4 5 6 7 8 9 10 11 12 13 14 15 16 17 18 19 20 21 22 23 24 25 26 27 28 29 30 31
829
FTUS43 KBIS 250701 AAA
TAFDIK
TAF AMD
KDIK 250701Z 2507/2606 31028G39KT 6SM SHRA BR SCT008 OVC015
     FM251000 31024G34KT P6SM SHRA BKN035
     FM251200 30023G32KT P6SM SCT200
     FM260100 29011KT P6SM FEW250=

USA.gov is the U.S. government's official web portal to all federal, state and local government web resources and services.